sensor_id;sensor_type;location;lat;lon;timestamp;temperature;humidity
38428;DHT22;24211;49.980;19.776;2022-09-30T00:01:47;10.90;99.90
38428;DHT22;24211;49.980;19.776;2022-09-30T00:04:22;10.90;99.90
38428;DHT22;24211;49.980;19.776;2022-09-30T00:06:52;10.80;99.90
38428;DHT22;24211;49.980;19.776;2022-09-30T00:09:20;10.80;99.90
38428;DHT22;24211;49.980;19.776;2022-09-30T00:11:48;10.70;99.90
38428;DHT22;24211;49.980;19.776;2022-09-30T00:14:19;10.60;99.90
38428;DHT22;24211;49.980;19.776;2022-09-30T00:16:48;10.50;99.90
38428;DHT22;24211;49.980;19.776;2022-09-30T00:19:16;10.50;99.90
38428;DHT22;24211;49.980;19.776;2022-09-30T00:21:43;10.50;99.90
38428;DHT22;24211;49.980;19.776;2022-09-30T00:24:11;10.60;99.90
38428;DHT22;24211;49.980;19.776;2022-09-30T00:26:39;10.60;99.90
38428;DHT22;24211;49.980;19.776;2022-09-30T00:29:06;10.70;99.90
38428;DHT22;24211;49.980;19.776;2022-09-30T00:31:36;10.60;99.90
38428;DHT22;24211;49.980;19.776;2022-09-30T00:34:03;10.60;99.90
38428;DHT22;24211;49.980;19.776;2022-09-30T00:36:47;10.50;99.90
38428;DHT22;24211;49.980;19.776;2022-09-30T00:41:50;10.70;99.90
38428;DHT22;24211;49.980;19.776;2022-09-30T00:55:59;10.60;99.90
38428;DHT22;24211;49.980;19.776;2022-09-30T00:58:48;10.50;99.90
38428;DHT22;24211;49.980;19.776;2022-09-30T01:01:22;10.50;99.90
38428;DHT22;24211;49.980;19.776;2022-09-30T01:03:54;10.40;99.90
38428;DHT22;24211;49.980;19.776;2022-09-30T01:06:27;10.30;99.90
38428;DHT22;24211;49.980;19.776;2022-09-30T01:08:55;10.20;99.90
38428;DHT22;24211;49.980;19.776;2022-09-30T01:11:26;10.30;99.90
38428;DHT22;24211;49.980;19.776;2022-09-30T01:13:59;10.30;99.90
38428;DHT22;24211;49.980;19.776;2022-09-30T01:19:54;10.40;99.90
38428;DHT22;24211;49.980;19.776;2022-09-30T01:22:40;10.40;99.90
38428;DHT22;24211;49.980;19.776;2022-09-30T01:40:27;10.50;99.90
38428;DHT22;24211;49.980;19.776;2022-09-30T01:43:26;10.60;99.90
38428;DHT22;24211;49.980;19.776;2022-09-30T01:46:21;10.70;99.90
38428;DHT22;24211;49.980;19.776;2022-09-30T01:51:53;10.90;99.90
38428;DHT22;24211;49.980;19.776;2022-09-30T01:54:47;10.90;99.90
38428;DHT22;24211;49.980;19.776;2022-09-30T01:57:22;11.10;99.90
38428;DHT22;24211;49.980;19.776;2022-09-30T01:59:57;11.10;99.90
38428;DHT22;24211;49.980;19.776;2022-09-30T02:02:59;11.10;99.90
38428;DHT22;24211;49.980;19.776;2022-09-30T02:05:47;11.00;99.90
38428;DHT22;24211;49.980;19.776;2022-09-30T02:08:35;10.80;99.90
38428;DHT22;24211;49.980;19.776;2022-09-30T02:11:14;10.80;99.90
38428;DHT22;24211;49.980;19.776;2022-09-30T02:16:45;11.00;99.90
38428;DHT22;24211;49.980;19.776;2022-09-30T02:19:27;11.00;99.90
38428;DHT22;24211;49.980;19.776;2022-09-30T02:22:04;11.20;99.90
38428;DHT22;24211;49.980;19.776;2022-09-30T02:24:38;11.10;99.90
38428;DHT22;24211;49.980;19.776;2022-09-30T02:27:20;11.20;99.90
38428;DHT22;24211;49.980;19.776;2022-09-30T02:29:58;11.10;99.90
38428;DHT22;24211;49.980;19.776;2022-09-30T02:32:34;11.10;99.90
38428;DHT22;24211;49.980;19.776;2022-09-30T02:35:25;10.80;99.90
38428;DHT22;24211;49.980;19.776;2022-09-30T02:37:58;10.80;99.90
38428;DHT22;24211;49.980;19.776;2022-09-30T02:40:38;10.70;99.90
38428;DHT22;24211;49.980;19.776;2022-09-30T02:43:14;10.70;99.90
38428;DHT22;24211;49.980;19.776;2022-09-30T02:46:00;10.60;99.90
38428;DHT22;24211;49.980;19.776;2022-09-30T02:49:01;10.70;99.90
38428;DHT22;24211;49.980;19.776;2022-09-30T02:55:08;10.80;99.90
38428;DHT22;24211;49.980;19.776;2022-09-30T03:00:37;11.00;99.90
38428;DHT22;24211;49.980;19.776;2022-09-30T03:03:19;10.90;99.90
38428;DHT22;24211;49.980;19.776;2022-09-30T03:05:50;10.80;99.90
38428;DHT22;24211;49.980;19.776;2022-09-30T03:08:17;10.70;99.90
38428;DHT22;24211;49.980;19.776;2022-09-30T03:10:47;10.60;99.90
38428;DHT22;24211;49.980;19.776;2022-09-30T03:13:50;10.70;99.90
38428;DHT22;24211;49.980;19.776;2022-09-30T03:31:54;10.50;99.90
38428;DHT22;24211;49.980;19.776;2022-09-30T03:37:58;10.70;99.90
38428;DHT22;24211;49.980;19.776;2022-09-30T03:40:39;10.80;99.90
38428;DHT22;24211;49.980;19.776;2022-09-30T03:49:14;11.00;99.90
38428;DHT22;24211;49.980;19.776;2022-09-30T03:51:47;11.00;99.90
38428;DHT22;24211;49.980;19.776;2022-09-30T03:54:17;11.10;99.90
38428;DHT22;24211;49.980;19.776;2022-09-30T03:56:44;10.90;99.90
38428;DHT22;24211;49.980;19.776;2022-09-30T03:59:18;10.90;99.90
38428;DHT22;24211;49.980;19.776;2022-09-30T04:01:51;10.80;99.90
38428;DHT22;24211;49.980;19.776;2022-09-30T04:04:19;10.70;99.90
38428;DHT22;24211;49.980;19.776;2022-09-30T04:06:46;10.70;99.90
38428;DHT22;24211;49.980;19.776;2022-09-30T04:09:13;10.80;99.90
38428;DHT22;24211;49.980;19.776;2022-09-30T04:11:42;10.80;99.90
38428;DHT22;24211;49.980;19.776;2022-09-30T04:14:09;10.70;99.90
38428;DHT22;24211;49.980;19.776;2022-09-30T04:16:37;10.90;99.90
38428;DHT22;24211;49.980;19.776;2022-09-30T04:19:04;10.80;99.90
38428;DHT22;24211;49.980;19.776;2022-09-30T04:21:31;10.70;99.90
38428;DHT22;24211;49.980;19.776;2022-09-30T04:23:59;10.70;99.90
38428;DHT22;24211;49.980;19.776;2022-09-30T04:26:26;10.60;99.90
38428;DHT22;24211;49.980;19.776;2022-09-30T04:28:53;10.60;99.90
38428;DHT22;24211;49.980;19.776;2022-09-30T04:31:24;10.70;99.90
38428;DHT22;24211;49.980;19.776;2022-09-30T04:33:51;10.70;99.90
38428;DHT22;24211;49.980;19.776;2022-09-30T04:36:19;10.70;99.90
38428;DHT22;24211;49.980;19.776;2022-09-30T04:38:46;10.80;99.90
38428;DHT22;24211;49.980;19.776;2022-09-30T04:41:15;10.80;99.90
38428;DHT22;24211;49.980;19.776;2022-09-30T04:43:44;10.70;99.90
38428;DHT22;24211;49.980;19.776;2022-09-30T04:46:18;10.70;99.90
38428;DHT22;24211;49.980;19.776;2022-09-30T04:48:46;10.70;99.90
38428;DHT22;24211;49.980;19.776;2022-09-30T04:51:17;10.70;99.90
38428;DHT22;24211;49.980;19.776;2022-09-30T04:53:47;10.70;99.90
38428;DHT22;24211;49.980;19.776;2022-09-30T04:56:15;10.70;99.90
38428;DHT22;24211;49.980;19.776;2022-09-30T04:58:43;10.70;99.90
38428;DHT22;24211;49.980;19.776;2022-09-30T05:01:12;10.60;99.90
38428;DHT22;24211;49.980;19.776;2022-09-30T05:03:42;10.70;99.90
38428;DHT22;24211;49.980;19.776;2022-09-30T05:06:10;10.70;99.90
38428;DHT22;24211;49.980;19.776;2022-09-30T05:08:38;10.70;99.90
38428;DHT22;24211;49.980;19.776;2022-09-30T05:11:16;10.80;99.90
38428;DHT22;24211;49.980;19.776;2022-09-30T05:13:45;10.80;99.90
38428;DHT22;24211;49.980;19.776;2022-09-30T05:16:14;10.80;99.90
38428;DHT22;24211;49.980;19.776;2022-09-30T05:18:43;10.90;99.90
38428;DHT22;24211;49.980;19.776;2022-09-30T05:21:14;10.90;99.90
38428;DHT22;24211;49.980;19.776;2022-09-30T05:23:43;10.90;99.90
38428;DHT22;24211;49.980;19.776;2022-09-30T05:26:10;10.90;99.90
38428;DHT22;24211;49.980;19.776;2022-09-30T05:28:40;11.00;99.90
38428;DHT22;24211;49.980;19.776;2022-09-30T05:31:08;11.00;99.90
38428;DHT22;24211;49.980;19.776;2022-09-30T05:33:36;10.90;99.90
38428;DHT22;24211;49.980;19.776;2022-09-30T05:36:05;11.00;99.90
38428;DHT22;24211;49.980;19.776;2022-09-30T05:38:34;11.10;99.90
38428;DHT22;24211;49.980;19.776;2022-09-30T05:41:10;11.00;99.90
38428;DHT22;24211;49.980;19.776;2022-09-30T05:43:41;11.20;99.90
38428;DHT22;24211;49.980;19.776;2022-09-30T05:46:16;11.20;99.90
38428;DHT22;24211;49.980;19.776;2022-09-30T05:48:45;11.20;99.90
38428;DHT22;24211;49.980;19.776;2022-09-30T05:51:13;11.10;99.90
38428;DHT22;24211;49.980;19.776;2022-09-30T05:53:40;11.10;99.90
38428;DHT22;24211;49.980;19.776;2022-09-30T05:56:09;11.00;99.90
38428;DHT22;24211;49.980;19.776;2022-09-30T05:58:37;11.00;99.90
38428;DHT22;24211;49.980;19.776;2022-09-30T06:01:14;11.10;99.90
38428;DHT22;24211;49.980;19.776;2022-09-30T06:03:44;11.10;99.90
38428;DHT22;24211;49.980;19.776;2022-09-30T06:06:14;11.10;99.90
38428;DHT22;24211;49.980;19.776;2022-09-30T06:08:42;11.10;99.90
38428;DHT22;24211;49.980;19.776;2022-09-30T06:11:16;11.10;99.90
38428;DHT22;24211;49.980;19.776;2022-09-30T06:13:46;11.20;99.90
38428;DHT22;24211;49.980;19.776;2022-09-30T06:16:14;11.20;99.90
38428;DHT22;24211;49.980;19.776;2022-09-30T06:18:44;11.20;99.90
38428;DHT22;24211;49.980;19.776;2022-09-30T06:21:13;11.20;99.90
38428;DHT22;24211;49.980;19.776;2022-09-30T06:23:42;11.20;99.90
38428;DHT22;24211;49.980;19.776;2022-09-30T06:26:11;11.20;99.90
38428;DHT22;24211;49.980;19.776;2022-09-30T06:28:40;11.20;99.90
38428;DHT22;24211;49.980;19.776;2022-09-30T06:31:08;11.20;99.90
38428;DHT22;24211;49.980;19.776;2022-09-30T06:33:36;11.10;99.90
38428;DHT22;24211;49.980;19.776;2022-09-30T06:36:04;11.10;99.90
38428;DHT22;24211;49.980;19.776;2022-09-30T06:38:34;11.10;99.90
38428;DHT22;24211;49.980;19.776;2022-09-30T06:41:04;11.20;99.90
38428;DHT22;24211;49.980;19.776;2022-09-30T06:43:32;11.20;99.90
38428;DHT22;24211;49.980;19.776;2022-09-30T06:46:08;11.30;99.90
38428;DHT22;24211;49.980;19.776;2022-09-30T06:48:46;11.30;99.90
38428;DHT22;24211;49.980;19.776;2022-09-30T06:51:13;11.30;99.90
38428;DHT22;24211;49.980;19.776;2022-09-30T06:53:40;11.20;99.90
38428;DHT22;24211;49.980;19.776;2022-09-30T06:56:08;11.20;99.90
38428;DHT22;24211;49.980;19.776;2022-09-30T06:58:36;11.20;99.90
38428;DHT22;24211;49.980;19.776;2022-09-30T07:01:06;11.20;99.90
38428;DHT22;24211;49.980;19.776;2022-09-30T07:03:34;11.20;99.90
38428;DHT22;24211;49.980;19.776;2022-09-30T07:06:05;11.10;99.90
38428;DHT22;24211;49.980;19.776;2022-09-30T07:08:34;11.20;99.90
38428;DHT22;24211;49.980;19.776;2022-09-30T07:11:07;11.20;99.90
38428;DHT22;24211;49.980;19.776;2022-09-30T07:13:43;11.40;99.90
38428;DHT22;24211;49.980;19.776;2022-09-30T07:16:13;11.30;99.90
38428;DHT22;24211;49.980;19.776;2022-09-30T07:18:42;11.40;99.90
38428;DHT22;24211;49.980;19.776;2022-09-30T07:21:13;11.40;99.90
38428;DHT22;24211;49.980;19.776;2022-09-30T07:23:43;11.30;99.90
38428;DHT22;24211;49.980;19.776;2022-09-30T07:26:17;11.40;99.90
38428;DHT22;24211;49.980;19.776;2022-09-30T07:28:47;11.30;99.90
38428;DHT22;24211;49.980;19.776;2022-09-30T07:31:21;11.40;99.90
38428;DHT22;24211;49.980;19.776;2022-09-30T07:34:06;11.40;99.90
38428;DHT22;24211;49.980;19.776;2022-09-30T07:36:40;11.40;99.90
38428;DHT22;24211;49.980;19.776;2022-09-30T07:39:09;11.40;99.90
38428;DHT22;24211;49.980;19.776;2022-09-30T07:41:38;11.40;99.90
38428;DHT22;24211;49.980;19.776;2022-09-30T07:44:09;11.60;99.90
38428;DHT22;24211;49.980;19.776;2022-09-30T07:46:42;11.50;99.90
38428;DHT22;24211;49.980;19.776;2022-09-30T07:49:16;11.40;99.90
38428;DHT22;24211;49.980;19.776;2022-09-30T07:51:54;11.50;99.90
38428;DHT22;24211;49.980;19.776;2022-09-30T07:54:29;11.50;99.90
38428;DHT22;24211;49.980;19.776;2022-09-30T07:57:00;11.50;99.90
38428;DHT22;24211;49.980;19.776;2022-09-30T07:59:40;11.50;99.90
38428;DHT22;24211;49.980;19.776;2022-09-30T08:02:15;11.60;99.90
38428;DHT22;24211;49.980;19.776;2022-09-30T08:04:44;11.70;99.90
38428;DHT22;24211;49.980;19.776;2022-09-30T08:07:14;11.80;99.90
38428;DHT22;24211;49.980;19.776;2022-09-30T08:09:43;11.90;99.90
38428;DHT22;24211;49.980;19.776;2022-09-30T08:12:10;11.90;99.90
38428;DHT22;24211;49.980;19.776;2022-09-30T08:14:37;11.90;99.90
38428;DHT22;24211;49.980;19.776;2022-09-30T08:17:05;11.80;99.90
38428;DHT22;24211;49.980;19.776;2022-09-30T08:19:32;11.80;99.90
38428;DHT22;24211;49.980;19.776;2022-09-30T08:22:00;11.70;99.90
38428;DHT22;24211;49.980;19.776;2022-09-30T08:24:33;11.80;99.90
38428;DHT22;24211;49.980;19.776;2022-09-30T08:27:00;11.90;99.90
38428;DHT22;24211;49.980;19.776;2022-09-30T08:29:28;11.90;99.90
38428;DHT22;24211;49.980;19.776;2022-09-30T08:32:15;11.90;99.90
38428;DHT22;24211;49.980;19.776;2022-09-30T08:34:44;11.90;99.90
38428;DHT22;24211;49.980;19.776;2022-09-30T08:37:11;11.90;99.90
38428;DHT22;24211;49.980;19.776;2022-09-30T08:39:39;11.90;99.90
38428;DHT22;24211;49.980;19.776;2022-09-30T08:51:42;11.90;99.90
38428;DHT22;24211;49.980;19.776;2022-09-30T08:54:20;11.90;99.90
38428;DHT22;24211;49.980;19.776;2022-09-30T08:56:56;11.90;99.90
38428;DHT22;24211;49.980;19.776;2022-09-30T09:04:44;11.90;99.90
38428;DHT22;24211;49.980;19.776;2022-09-30T09:16:24;12.30;99.90
38428;DHT22;24211;49.980;19.776;2022-09-30T09:19:15;12.40;99.90
38428;DHT22;24211;49.980;19.776;2022-09-30T09:21:57;12.50;99.90
38428;DHT22;24211;49.980;19.776;2022-09-30T09:24:44;12.20;99.90
38428;DHT22;24211;49.980;19.776;2022-09-30T09:27:25;12.20;99.90
38428;DHT22;24211;49.980;19.776;2022-09-30T09:30:10;12.30;99.90
38428;DHT22;24211;49.980;19.776;2022-09-30T09:32:41;12.30;99.90
38428;DHT22;24211;49.980;19.776;2022-09-30T09:35:41;12.40;99.90
38428;DHT22;24211;49.980;19.776;2022-09-30T09:44:10;12.40;99.90
38428;DHT22;24211;49.980;19.776;2022-09-30T09:46:53;12.40;99.90
38428;DHT22;24211;49.980;19.776;2022-09-30T09:49:35;12.50;99.90
38428;DHT22;24211;49.980;19.776;2022-09-30T09:54:43;12.40;99.90
38428;DHT22;24211;49.980;19.776;2022-09-30T09:57:16;12.50;99.90
38428;DHT22;24211;49.980;19.776;2022-09-30T10:00:05;12.50;99.90
38428;DHT22;24211;49.980;19.776;2022-09-30T10:03:15;12.60;99.90
38428;DHT22;24211;49.980;19.776;2022-09-30T10:06:10;12.60;99.90
38428;DHT22;24211;49.980;19.776;2022-09-30T10:08:54;12.60;99.90
38428;DHT22;24211;49.980;19.776;2022-09-30T10:11:25;12.70;99.90
38428;DHT22;24211;49.980;19.776;2022-09-30T10:13:57;12.70;99.90
38428;DHT22;24211;49.980;19.776;2022-09-30T10:16:33;12.70;99.90
38428;DHT22;24211;49.980;19.776;2022-09-30T10:19:15;12.60;99.90
38428;DHT22;24211;49.980;19.776;2022-09-30T10:21:46;12.60;99.90
38428;DHT22;24211;49.980;19.776;2022-09-30T10:24:30;12.60;99.90
38428;DHT22;24211;49.980;19.776;2022-09-30T10:26:58;12.70;99.90
38428;DHT22;24211;49.980;19.776;2022-09-30T10:29:29;12.80;99.90
38428;DHT22;24211;49.980;19.776;2022-09-30T10:32:00;12.90;99.90
38428;DHT22;24211;49.980;19.776;2022-09-30T10:34:35;13.00;99.90
38428;DHT22;24211;49.980;19.776;2022-09-30T10:37:14;13.10;99.90
38428;DHT22;24211;49.980;19.776;2022-09-30T10:40:01;13.20;99.90
38428;DHT22;24211;49.980;19.776;2022-09-30T10:42:39;13.30;99.90
38428;DHT22;24211;49.980;19.776;2022-09-30T10:45:19;13.40;99.90
38428;DHT22;24211;49.980;19.776;2022-09-30T10:47:52;13.30;99.90
38428;DHT22;24211;49.980;19.776;2022-09-30T10:50:23;13.30;99.90
38428;DHT22;24211;49.980;19.776;2022-09-30T10:53:02;13.40;99.90
38428;DHT22;24211;49.980;19.776;2022-09-30T10:55:42;13.40;99.90
38428;DHT22;24211;49.980;19.776;2022-09-30T10:58:37;13.30;99.90
38428;DHT22;24211;49.980;19.776;2022-09-30T11:01:29;13.30;99.90
38428;DHT22;24211;49.980;19.776;2022-09-30T11:04:26;13.40;99.90
38428;DHT22;24211;49.980;19.776;2022-09-30T11:07:31;13.30;99.90
38428;DHT22;24211;49.980;19.776;2022-09-30T11:10:20;13.40;99.90
38428;DHT22;24211;49.980;19.776;2022-09-30T11:16:14;13.50;99.90
38428;DHT22;24211;49.980;19.776;2022-09-30T11:21:39;13.50;99.90
38428;DHT22;24211;49.980;19.776;2022-09-30T11:26:51;13.50;99.90
38428;DHT22;24211;49.980;19.776;2022-09-30T11:29:35;13.40;99.90
38428;DHT22;24211;49.980;19.776;2022-09-30T11:32:37;13.50;99.90
38428;DHT22;24211;49.980;19.776;2022-09-30T11:41:29;13.70;99.90
38428;DHT22;24211;49.980;19.776;2022-09-30T11:50:30;13.80;99.90
38428;DHT22;24211;49.980;19.776;2022-09-30T11:56:21;13.90;99.90
38428;DHT22;24211;49.980;19.776;2022-09-30T11:59:25;13.90;99.90
38428;DHT22;24211;49.980;19.776;2022-09-30T12:02:00;13.90;99.90
38428;DHT22;24211;49.980;19.776;2022-09-30T12:04:35;13.90;99.90
38428;DHT22;24211;49.980;19.776;2022-09-30T12:07:20;13.90;99.90
38428;DHT22;24211;49.980;19.776;2022-09-30T12:09:59;13.90;99.90
38428;DHT22;24211;49.980;19.776;2022-09-30T12:12:31;13.90;99.90
38428;DHT22;24211;49.980;19.776;2022-09-30T12:15:01;14.00;99.90
38428;DHT22;24211;49.980;19.776;2022-09-30T12:17:45;14.00;99.90
38428;DHT22;24211;49.980;19.776;2022-09-30T12:20:23;14.00;99.90
38428;DHT22;24211;49.980;19.776;2022-09-30T12:23:13;14.00;99.90
38428;DHT22;24211;49.980;19.776;2022-09-30T12:25:54;14.00;99.90
38428;DHT22;24211;49.980;19.776;2022-09-30T12:34:40;14.10;99.90
38428;DHT22;24211;49.980;19.776;2022-09-30T12:40:28;14.10;99.90
38428;DHT22;24211;49.980;19.776;2022-09-30T12:48:56;14.30;99.90
38428;DHT22;24211;49.980;19.776;2022-09-30T12:54:04;14.40;99.90
38428;DHT22;24211;49.980;19.776;2022-09-30T12:56:44;14.40;99.90
38428;DHT22;24211;49.980;19.776;2022-09-30T12:59:25;14.50;99.90
38428;DHT22;24211;49.980;19.776;2022-09-30T13:01:55;14.50;99.90
38428;DHT22;24211;49.980;19.776;2022-09-30T13:07:15;14.50;99.90
38428;DHT22;24211;49.980;19.776;2022-09-30T13:09:59;14.50;99.90
38428;DHT22;24211;49.980;19.776;2022-09-30T13:12:47;14.50;99.90
38428;DHT22;24211;49.980;19.776;2022-09-30T13:15:46;14.50;99.90
38428;DHT22;24211;49.980;19.776;2022-09-30T13:20:56;14.50;99.90
38428;DHT22;24211;49.980;19.776;2022-09-30T13:23:49;14.50;99.90
38428;DHT22;24211;49.980;19.776;2022-09-30T13:26:33;14.50;99.90
38428;DHT22;24211;49.980;19.776;2022-09-30T13:34:26;14.50;99.90
38428;DHT22;24211;49.980;19.776;2022-09-30T13:37:04;14.50;99.90
38428;DHT22;24211;49.980;19.776;2022-09-30T13:42:20;14.50;99.90
38428;DHT22;24211;49.980;19.776;2022-09-30T13:45:08;14.50;99.90
38428;DHT22;24211;49.980;19.776;2022-09-30T13:47:48;14.60;99.90
38428;DHT22;24211;49.980;19.776;2022-09-30T13:50:36;14.60;99.90
38428;DHT22;24211;49.980;19.776;2022-09-30T13:53:23;14.60;99.90
38428;DHT22;24211;49.980;19.776;2022-09-30T13:55:57;14.70;99.90
38428;DHT22;24211;49.980;19.776;2022-09-30T13:58:48;14.80;99.90
38428;DHT22;24211;49.980;19.776;2022-09-30T14:04:49;15.00;99.90
38428;DHT22;24211;49.980;19.776;2022-09-30T14:19:51;15.20;99.90
38428;DHT22;24211;49.980;19.776;2022-09-30T14:22:21;15.20;99.90
38428;DHT22;24211;49.980;19.776;2022-09-30T14:24:53;15.20;99.90
38428;DHT22;24211;49.980;19.776;2022-09-30T14:27:38;15.10;99.90
38428;DHT22;24211;49.980;19.776;2022-09-30T14:30:21;15.10;99.90
38428;DHT22;24211;49.980;19.776;2022-09-30T14:33:39;15.10;99.90
38428;DHT22;24211;49.980;19.776;2022-09-30T14:35:52;15.00;99.90
38428;DHT22;24211;49.980;19.776;2022-09-30T14:38:24;15.00;99.90
38428;DHT22;24211;49.980;19.776;2022-09-30T14:40:59;15.00;99.90
38428;DHT22;24211;49.980;19.776;2022-09-30T14:43:40;14.90;99.90
38428;DHT22;24211;49.980;19.776;2022-09-30T14:49:05;14.90;99.90
38428;DHT22;24211;49.980;19.776;2022-09-30T14:51:38;14.90;99.90
38428;DHT22;24211;49.980;19.776;2022-09-30T14:56:49;14.90;99.90
38428;DHT22;24211;49.980;19.776;2022-09-30T14:59:21;14.90;99.90
38428;DHT22;24211;49.980;19.776;2022-09-30T15:01:59;14.90;99.90
38428;DHT22;24211;49.980;19.776;2022-09-30T15:04:33;14.90;99.90
38428;DHT22;24211;49.980;19.776;2022-09-30T15:07:09;14.90;99.90
38428;DHT22;24211;49.980;19.776;2022-09-30T15:09:38;14.90;99.90
38428;DHT22;24211;49.980;19.776;2022-09-30T15:14:54;14.90;99.90
38428;DHT22;24211;49.980;19.776;2022-09-30T15:17:28;14.90;99.90
38428;DHT22;24211;49.980;19.776;2022-09-30T15:20:23;14.80;99.90
38428;DHT22;24211;49.980;19.776;2022-09-30T15:22:56;14.80;99.90
38428;DHT22;24211;49.980;19.776;2022-09-30T15:25:29;14.90;99.90
38428;DHT22;24211;49.980;19.776;2022-09-30T15:27:57;14.90;99.90
38428;DHT22;24211;49.980;19.776;2022-09-30T15:30:28;14.90;99.90
38428;DHT22;24211;49.980;19.776;2022-09-30T15:33:00;14.90;99.90
38428;DHT22;24211;49.980;19.776;2022-09-30T15:35:31;14.90;99.90
38428;DHT22;24211;49.980;19.776;2022-09-30T15:40:53;14.90;99.90
38428;DHT22;24211;49.980;19.776;2022-09-30T15:43:37;14.90;99.90
38428;DHT22;24211;49.980;19.776;2022-09-30T15:46:27;14.90;99.90
38428;DHT22;24211;49.980;19.776;2022-09-30T15:49:01;14.90;99.90
38428;DHT22;24211;49.980;19.776;2022-09-30T15:54:55;14.80;99.90
38428;DHT22;24211;49.980;19.776;2022-09-30T16:00:36;14.70;99.90
38428;DHT22;24211;49.980;19.776;2022-09-30T16:05:45;14.60;99.90
38428;DHT22;24211;49.980;19.776;2022-09-30T16:08:22;14.60;99.90
38428;DHT22;24211;49.980;19.776;2022-09-30T16:10:55;14.60;99.90
38428;DHT22;24211;49.980;19.776;2022-09-30T16:13:27;14.50;99.90
38428;DHT22;24211;49.980;19.776;2022-09-30T16:15:56;14.50;99.90
38428;DHT22;24211;49.980;19.776;2022-09-30T16:18:26;14.50;99.90
38428;DHT22;24211;49.980;19.776;2022-09-30T16:21:04;14.50;99.90
38428;DHT22;24211;49.980;19.776;2022-09-30T16:23:36;14.50;99.90
38428;DHT22;24211;49.980;19.776;2022-09-30T16:28:41;14.50;99.90
38428;DHT22;24211;49.980;19.776;2022-09-30T16:31:09;14.50;99.90
38428;DHT22;24211;49.980;19.776;2022-09-30T16:33:43;14.50;99.90
38428;DHT22;24211;49.980;19.776;2022-09-30T16:36:11;14.50;99.90
38428;DHT22;24211;49.980;19.776;2022-09-30T16:38:40;14.50;99.90
38428;DHT22;24211;49.980;19.776;2022-09-30T16:41:12;14.50;99.90
38428;DHT22;24211;49.980;19.776;2022-09-30T16:43:39;14.50;99.90
38428;DHT22;24211;49.980;19.776;2022-09-30T16:46:08;14.50;99.90
38428;DHT22;24211;49.980;19.776;2022-09-30T16:48:35;14.50;99.90
38428;DHT22;24211;49.980;19.776;2022-09-30T16:51:13;14.50;99.90
38428;DHT22;24211;49.980;19.776;2022-09-30T16:53:42;14.50;99.90
38428;DHT22;24211;49.980;19.776;2022-09-30T16:56:14;14.50;99.90
38428;DHT22;24211;49.980;19.776;2022-09-30T16:58:45;14.40;99.90
38428;DHT22;24211;49.980;19.776;2022-09-30T17:01:19;14.40;99.90
38428;DHT22;24211;49.980;19.776;2022-09-30T17:03:51;14.40;99.90
38428;DHT22;24211;49.980;19.776;2022-09-30T17:06:30;14.40;99.90
38428;DHT22;24211;49.980;19.776;2022-09-30T17:08:59;14.40;99.90
38428;DHT22;24211;49.980;19.776;2022-09-30T17:11:35;14.40;99.90
38428;DHT22;24211;49.980;19.776;2022-09-30T17:14:04;14.40;99.90
38428;DHT22;24211;49.980;19.776;2022-09-30T17:16:32;14.30;99.90
38428;DHT22;24211;49.980;19.776;2022-09-30T17:19:02;14.30;99.90
38428;DHT22;24211;49.980;19.776;2022-09-30T17:21:30;14.30;99.90
38428;DHT22;24211;49.980;19.776;2022-09-30T17:23:57;14.40;99.90
38428;DHT22;24211;49.980;19.776;2022-09-30T17:26:25;14.30;99.90
38428;DHT22;24211;49.980;19.776;2022-09-30T17:28:52;14.40;99.90
38428;DHT22;24211;49.980;19.776;2022-09-30T17:31:35;14.40;99.90
38428;DHT22;24211;49.980;19.776;2022-09-30T17:34:03;14.30;99.90
38428;DHT22;24211;49.980;19.776;2022-09-30T17:36:33;14.40;99.90
38428;DHT22;24211;49.980;19.776;2022-09-30T17:39:03;14.40;99.90
38428;DHT22;24211;49.980;19.776;2022-09-30T17:41:32;14.30;99.90
38428;DHT22;24211;49.980;19.776;2022-09-30T17:44:19;14.30;99.90
38428;DHT22;24211;49.980;19.776;2022-09-30T17:46:47;14.30;99.90
38428;DHT22;24211;49.980;19.776;2022-09-30T17:49:14;14.30;99.90
38428;DHT22;24211;49.980;19.776;2022-09-30T17:51:50;14.30;99.90
38428;DHT22;24211;49.980;19.776;2022-09-30T17:54:17;14.30;99.90
38428;DHT22;24211;49.980;19.776;2022-09-30T17:56:44;14.20;99.90
38428;DHT22;24211;49.980;19.776;2022-09-30T17:59:12;14.20;99.90
38428;DHT22;24211;49.980;19.776;2022-09-30T18:01:39;14.20;99.90
38428;DHT22;24211;49.980;19.776;2022-09-30T18:04:07;14.20;99.90
38428;DHT22;24211;49.980;19.776;2022-09-30T18:06:35;14.30;99.90
38428;DHT22;24211;49.980;19.776;2022-09-30T18:09:02;14.30;99.90
38428;DHT22;24211;49.980;19.776;2022-09-30T18:11:30;14.20;99.90
38428;DHT22;24211;49.980;19.776;2022-09-30T18:13:59;14.20;99.90
38428;DHT22;24211;49.980;19.776;2022-09-30T18:16:29;14.20;99.90
38428;DHT22;24211;49.980;19.776;2022-09-30T18:19:03;14.20;99.90
38428;DHT22;24211;49.980;19.776;2022-09-30T18:21:34;14.20;99.90
38428;DHT22;24211;49.980;19.776;2022-09-30T18:24:04;14.20;99.90
38428;DHT22;24211;49.980;19.776;2022-09-30T18:26:35;14.20;99.90
38428;DHT22;24211;49.980;19.776;2022-09-30T18:29:03;14.20;99.90
38428;DHT22;24211;49.980;19.776;2022-09-30T18:31:31;14.20;99.90
38428;DHT22;24211;49.980;19.776;2022-09-30T18:34:05;14.20;99.90
38428;DHT22;24211;49.980;19.776;2022-09-30T18:36:34;14.20;99.90
38428;DHT22;24211;49.980;19.776;2022-09-30T18:39:03;14.20;99.90
38428;DHT22;24211;49.980;19.776;2022-09-30T18:41:31;14.10;99.90
38428;DHT22;24211;49.980;19.776;2022-09-30T18:44:02;14.20;99.90
38428;DHT22;24211;49.980;19.776;2022-09-30T18:46:30;14.20;99.90
38428;DHT22;24211;49.980;19.776;2022-09-30T18:48:57;14.10;99.90
38428;DHT22;24211;49.980;19.776;2022-09-30T18:51:26;14.10;99.90
38428;DHT22;24211;49.980;19.776;2022-09-30T18:53:58;14.10;99.90
38428;DHT22;24211;49.980;19.776;2022-09-30T18:56:29;14.10;99.90
38428;DHT22;24211;49.980;19.776;2022-09-30T18:58:59;14.10;99.90
38428;DHT22;24211;49.980;19.776;2022-09-30T19:01:31;14.10;99.90
38428;DHT22;24211;49.980;19.776;2022-09-30T19:04:02;14.20;99.90
38428;DHT22;24211;49.980;19.776;2022-09-30T19:06:31;14.10;99.90
38428;DHT22;24211;49.980;19.776;2022-09-30T19:08:59;14.10;99.90
38428;DHT22;24211;49.980;19.776;2022-09-30T19:11:28;14.10;99.90
38428;DHT22;24211;49.980;19.776;2022-09-30T19:13:57;14.10;99.90
38428;DHT22;24211;49.980;19.776;2022-09-30T19:16:29;14.10;99.90